Forest Lake, Minnesota
Current Conditions -  °F | °C
As of 4:34 AM on Monday 22 Dec 2014 (Local Time) from KANE Reporting Station
Haze Haze  
Wind Chill: 32°   Ceiling: 700
Heat Index: 39°   Visibility: 2.5mi
Dew Point: 39°   Wind: 12mph
Humidity: 100%   Direction: 140°SE
Pressure: 29.67"   Gusts: NA
Location:  45.28°N, 92.98°W
Report Text: KANE 221034Z AUTO 14010KT 2 1/2SM BR OVC007 04/04 A2967 RMK AO2
Loading
Personal Weather Stations






























Interactive Weather Map New forecast layout! Learn more

10-Day Weather Forecast

Advertisements
Track Severe Weather on mobile